Time;durP1;ratioP1;P1;durP2;ratioP2;P2;SDS_P1;SDS_P2;PMS_P1;PMS_P2;Temp;Humidity;BMP_temperature;BMP_pressure;BME280_temperature;BME280_humidity;BME280_pressure;Samples;Min_cycle;Max_cycle;Signal;HPM_P1;HPM_P2
2022/02/13 00:00:27;;;;;;;12.18;5.63;;;;;;;;;;4977942;28;20026;-86
2022/02/13 00:02:53;;;;;;;9.77;4.97;;;;;;;;;;4985242;28;20049;-86
2022/02/13 00:05:18;;;;;;;11.50;5.05;;;;;;;;;;4984941;28;20030;-82
2022/02/13 00:07:44;;;;;;;13.82;5.43;;;;;;;;;;4986276;28;20034;-86
2022/02/13 00:10:12;;;;;;;11.05;5.32;;;;;;;;;;4999958;28;20552;-86
2022/02/13 00:12:38;;;;;;;11.85;5.18;;;;;;;;;;4985340;28;20104;-85
2022/02/13 00:15:05;;;;;;;10.15;5.15;;;;;;;;;;4978924;28;20117;-83
2022/02/13 00:17:30;;;;;;;10.07;4.85;;;;;;;;;;4989246;28;20041;-82
2022/02/13 00:19:56;;;;;;;10.63;5.05;;;;;;;;;;4982153;28;20026;-86
2022/02/13 00:22:22;;;;;;;12.75;5.78;;;;;;;;;;4982609;28;20496;-87
2022/02/13 00:24:48;;;;;;;13.00;5.95;;;;;;;;;;4983165;28;20030;-82
2022/02/13 00:27:13;;;;;;;10.10;5.18;;;;;;;;;;4948835;28;20034;-83
2022/02/13 00:29:38;;;;;;;8.82;5.07;;;;;;;;;;4950937;28;20043;-82
2022/02/13 00:32:05;;;;;;;10.20;5.15;;;;;;;;;;4951134;28;20113;-85
2022/02/13 00:34:31;;;;;;;11.68;5.35;;;;;;;;;;4951326;28;20030;-85
2022/02/13 00:36:56;;;;;;;11.30;4.85;;;;;;;;;;4968381;28;20034;-84
2022/02/13 00:39:22;;;;;;;9.52;5.47;;;;;;;;;;4967600;28;20023;-86
2022/02/13 00:41:47;;;;;;;11.95;5.40;;;;;;;;;;4950866;28;20065;-82
2022/02/13 00:44:12;;;;;;;10.25;5.38;;;;;;;;;;4952129;28;20030;-83
2022/02/13 00:46:38;;;;;;;9.13;5.60;;;;;;;;;;4951480;28;20029;-82
2022/02/13 00:49:04;;;;;;;11.80;5.60;;;;;;;;;;4964026;28;20110;-84
2022/02/13 00:51:30;;;;;;;9.85;5.43;;;;;;;;;;4965620;28;20027;-85
2022/02/13 00:53:55;;;;;;;10.45;5.45;;;;;;;;;;4950383;28;20483;-85
2022/02/13 00:56:21;;;;;;;13.15;5.53;;;;;;;;;;4954304;28;20035;-84
2022/02/13 00:58:46;;;;;;;11.48;5.53;;;;;;;;;;4960486;28;20046;-83
2022/02/13 01:01:13;;;;;;;8.90;5.10;;;;;;;;;;4946291;28;20038;-85
2022/02/13 01:03:39;;;;;;;10.10;5.70;;;;;;;;;;4967492;28;20062;-86
2022/02/13 01:06:04;;;;;;;8.98;5.28;;;;;;;;;;4966756;28;20125;-86
2022/02/13 01:08:30;;;;;;;12.18;5.57;;;;;;;;;;4959438;28;20039;-84
2022/02/13 01:10:55;;;;;;;10.32;5.07;;;;;;;;;;4949209;28;20476;-81
2022/02/13 01:13:21;;;;;;;13.20;5.00;;;;;;;;;;4950148;28;20038;-85
2022/02/13 01:15:47;;;;;;;13.43;5.60;;;;;;;;;;4957467;28;20031;-82
2022/02/13 01:18:14;;;;;;;11.38;5.63;;;;;;;;;;4954617;28;20468;-86
2022/02/13 01:20:40;;;;;;;11.13;5.50;;;;;;;;;;4957380;28;20471;-84
2022/02/13 01:23:06;;;;;;;8.98;5.28;;;;;;;;;;4971779;28;20054;-85
2022/02/13 01:25:31;;;;;;;10.38;5.28;;;;;;;;;;4967418;28;20134;-80
2022/02/13 01:27:56;;;;;;;8.40;5.38;;;;;;;;;;4992344;28;20498;-82
2022/02/13 01:30:22;;;;;;;9.88;4.72;;;;;;;;;;4989374;28;20432;-86
2022/02/13 01:32:47;;;;;;;9.70;5.25;;;;;;;;;;4992688;28;20048;-87
2022/02/13 01:35:13;;;;;;;11.10;5.30;;;;;;;;;;4992898;28;20041;-84
2022/02/13 01:37:38;;;;;;;9.45;5.10;;;;;;;;;;4990874;28;20402;-83
2022/02/13 01:40:05;;;;;;;10.75;5.00;;;;;;;;;;4989245;28;20530;-85
2022/02/13 01:42:30;;;;;;;8.85;5.00;;;;;;;;;;5001454;28;20484;-85
2022/02/13 01:44:57;;;;;;;9.30;5.40;;;;;;;;;;4990459;28;20038;-84
2022/02/13 01:47:22;;;;;;;10.60;4.97;;;;;;;;;;4997058;28;20089;-82
2022/02/13 01:49:48;;;;;;;10.05;5.05;;;;;;;;;;4990047;28;20030;-84
2022/02/13 01:52:14;;;;;;;9.52;5.35;;;;;;;;;;4990850;28;20414;-85
2022/02/13 01:54:40;;;;;;;10.60;5.38;;;;;;;;;;4990588;28;20034;-81
2022/02/13 01:57:09;;;;;;;8.75;4.78;;;;;;;;;;4985670;28;20643;-84
2022/02/13 01:59:35;;;;;;;9.40;5.18;;;;;;;;;;5000096;28;20107;-86
2022/02/13 02:02:01;;;;;;;8.00;5.07;;;;;;;;;;4984097;28;20022;-82
2022/02/13 02:04:26;;;;;;;10.65;5.30;;;;;;;;;;4991486;28;20077;-84
2022/02/13 02:06:52;;;;;;;13.02;5.07;;;;;;;;;;4986341;28;20022;-84
2022/02/13 02:09:17;;;;;;;10.27;4.88;;;;;;;;;;4993163;28;20446;-86
2022/02/13 02:11:42;;;;;;;9.13;4.78;;;;;;;;;;4991920;28;20033;-84
2022/02/13 02:14:08;;;;;;;10.68;5.40;;;;;;;;;;4991382;28;20059;-83
2022/02/13 02:16:33;;;;;;;10.25;5.05;;;;;;;;;;4988659;28;20065;-83
2022/02/13 02:18:59;;;;;;;8.98;5.00;;;;;;;;;;4988753;28;20030;-86
2022/02/13 02:21:24;;;;;;;12.00;5.65;;;;;;;;;;4986677;28;20034;-84
2022/02/13 02:23:50;;;;;;;10.25;5.43;;;;;;;;;;4985798;28;20062;-81
2022/02/13 02:26:20;;;;;;;10.07;4.68;;;;;;;;;;4987974;28;20678;-85
2022/02/13 02:28:46;;;;;;;10.90;5.03;;;;;;;;;;4989268;28;20404;-86
2022/02/13 02:31:12;;;;;;;10.73;4.93;;;;;;;;;;5003922;28;20026;-81
2022/02/13 02:33:37;;;;;;;11.20;5.57;;;;;;;;;;4990035;28;20026;-84
2022/02/13 02:36:03;;;;;;;8.18;4.68;;;;;;;;;;4992701;28;20044;-85
2022/02/13 02:38:28;;;;;;;8.55;4.60;;;;;;;;;;4983052;28;20030;-85
2022/02/13 02:40:54;;;;;;;8.18;4.68;;;;;;;;;;4993583;28;20121;-84
2022/02/13 02:43:19;;;;;;;9.95;5.20;;;;;;;;;;5006869;28;20026;-81
2022/02/13 02:45:44;;;;;;;11.88;4.97;;;;;;;;;;4991411;28;20026;-85
2022/02/13 02:48:10;;;;;;;9.63;5.18;;;;;;;;;;4993305;28;20029;-87
2022/02/13 02:50:35;;;;;;;8.93;4.63;;;;;;;;;;4987592;28;20431;-86
2022/02/13 02:53:01;;;;;;;8.43;4.65;;;;;;;;;;4985613;28;20025;-86
2022/02/13 02:55:26;;;;;;;10.88;5.15;;;;;;;;;;4993855;28;20082;-84
2022/02/13 02:57:51;;;;;;;9.55;4.82;;;;;;;;;;4986852;28;20566;-85
2022/02/13 03:00:17;;;;;;;10.25;5.20;;;;;;;;;;4982541;28;20114;-83
2022/02/13 03:02:43;;;;;;;10.27;4.63;;;;;;;;;;4985972;28;20040;-86
2022/02/13 03:05:09;;;;;;;13.05;5.00;;;;;;;;;;4992521;28;20029;-84
2022/02/13 03:07:34;;;;;;;8.38;4.43;;;;;;;;;;4990206;28;20048;-87
2022/02/13 03:10:00;;;;;;;9.18;4.30;;;;;;;;;;4985912;28;20026;-84
2022/02/13 03:12:25;;;;;;;10.50;5.07;;;;;;;;;;4991320;28;20022;-85
2022/02/13 03:14:50;;;;;;;9.15;4.78;;;;;;;;;;4991664;28;20027;-82
2022/02/13 03:17:16;;;;;;;7.97;4.40;;;;;;;;;;4990379;28;20034;-86
2022/02/13 03:19:41;;;;;;;9.88;4.60;;;;;;;;;;4991363;28;20029;-86
2022/02/13 03:22:07;;;;;;;9.30;4.85;;;;;;;;;;4979904;28;20080;-84
2022/02/13 03:24:33;;;;;;;8.60;5.18;;;;;;;;;;4986413;28;20093;-86
2022/02/13 03:26:58;;;;;;;10.02;4.97;;;;;;;;;;4989779;28;20046;-81
2022/02/13 03:29:23;;;;;;;8.95;4.53;;;;;;;;;;4982351;28;20027;-84
2022/02/13 03:31:49;;;;;;;9.70;4.53;;;;;;;;;;4999000;28;20026;-86
2022/02/13 03:34:15;;;;;;;10.38;4.95;;;;;;;;;;4987905;28;20030;-84
2022/02/13 03:36:40;;;;;;;9.18;4.78;;;;;;;;;;4982664;28;20034;-82
2022/02/13 03:39:06;;;;;;;8.25;4.47;;;;;;;;;;4986404;28;20037;-83
2022/02/13 03:41:32;;;;;;;8.77;4.32;;;;;;;;;;4983278;28;20087;-84
2022/02/13 03:43:58;;;;;;;7.80;4.30;;;;;;;;;;4998849;28;20034;-85
2022/02/13 03:46:23;;;;;;;7.25;4.22;;;;;;;;;;4988853;28;20487;-85
2022/02/13 03:48:49;;;;;;;9.52;4.75;;;;;;;;;;4980156;28;20093;-85
2022/02/13 03:51:14;;;;;;;7.93;4.15;;;;;;;;;;4981289;28;20046;-84
2022/02/13 03:53:40;;;;;;;8.98;4.75;;;;;;;;;;4980171;28;20407;-86
2022/02/13 03:56:05;;;;;;;8.90;4.63;;;;;;;;;;4983443;28;20049;-84
2022/02/13 03:58:31;;;;;;;9.15;4.30;;;;;;;;;;4984118;28;20034;-85
2022/02/13 04:00:57;;;;;;;10.70;4.72;;;;;;;;;;5003278;28;20405;-84
2022/02/13 04:03:22;;;;;;;9.13;4.38;;;;;;;;;;4984354;28;20512;-84
2022/02/13 04:05:48;;;;;;;8.75;4.97;;;;;;;;;;4984107;28;20554;-81
2022/02/13 04:08:14;;;;;;;9.38;4.72;;;;;;;;;;4985573;28;20034;-85
2022/02/13 04:10:39;;;;;;;7.07;3.60;;;;;;;;;;4985150;28;20101;-85
2022/02/13 04:13:05;;;;;;;8.50;4.20;;;;;;;;;;4993614;28;20029;-85
2022/02/13 04:15:30;;;;;;;8.48;4.30;;;;;;;;;;4995930;28;20077;-82
2022/02/13 04:17:55;;;;;;;9.68;4.18;;;;;;;;;;4981977;28;20397;-86
2022/02/13 04:20:21;;;;;;;9.02;4.50;;;;;;;;;;4990889;28;20110;-86
2022/02/13 04:22:46;;;;;;;7.72;4.88;;;;;;;;;;4984962;28;20023;-81
2022/02/13 04:25:12;;;;;;;7.65;4.03;;;;;;;;;;4989211;28;20495;-82
2022/02/13 04:27:37;;;;;;;8.00;4.50;;;;;;;;;;4984868;28;20101;-86
2022/02/13 04:30:07;;;;;;;8.68;4.60;;;;;;;;;;4981328;28;20539;-82
2022/02/13 04:32:32;;;;;;;7.80;4.40;;;;;;;;;;4979903;28;20041;-86
2022/02/13 04:34:58;;;;;;;11.77;4.30;;;;;;;;;;4983532;28;20026;-86
2022/02/13 04:37:23;;;;;;;9.25;4.32;;;;;;;;;;4999435;28;20088;-85
2022/02/13 04:39:49;;;;;;;9.38;4.43;;;;;;;;;;4979515;28;20022;-85
2022/02/13 04:42:15;;;;;;;9.90;4.60;;;;;;;;;;4987031;28;20088;-86
2022/02/13 04:44:41;;;;;;;10.25;4.57;;;;;;;;;;4980529;28;20071;-81
2022/02/13 04:47:06;;;;;;;8.15;4.35;;;;;;;;;;5000494;28;20121;-84
2022/02/13 04:49:32;;;;;;;8.30;4.43;;;;;;;;;;4989571;28;20030;-84
2022/02/13 04:51:57;;;;;;;6.72;3.90;;;;;;;;;;4988352;28;20121;-82
2022/02/13 04:54:22;;;;;;;10.52;4.88;;;;;;;;;;4988218;28;20024;-83
2022/02/13 04:56:49;;;;;;;7.57;4.30;;;;;;;;;;4995211;28;20026;-85
2022/02/13 04:59:14;;;;;;;7.60;4.28;;;;;;;;;;4993774;28;20527;-85
2022/02/13 05:01:42;;;;;;;7.90;4.32;;;;;;;;;;4989610;28;20026;-81
2022/02/13 05:04:07;;;;;;;8.70;3.90;;;;;;;;;;4991080;28;20082;-86
2022/02/13 05:06:33;;;;;;;9.13;4.63;;;;;;;;;;4985050;28;20763;-84
2022/02/13 05:08:58;;;;;;;7.45;4.30;;;;;;;;;;4994477;28;20132;-85
2022/02/13 05:11:23;;;;;;;8.93;4.80;;;;;;;;;;4991089;28;20499;-85
2022/02/13 05:13:49;;;;;;;8.13;4.38;;;;;;;;;;4993390;28;20029;-85
2022/02/13 05:16:14;;;;;;;8.70;4.70;;;;;;;;;;4994541;28;20033;-81
2022/02/13 05:18:43;;;;;;;9.02;4.30;;;;;;;;;;4990582;28;20030;-86
2022/02/13 05:21:08;;;;;;;10.43;4.18;;;;;;;;;;4990074;28;20117;-85
2022/02/13 05:23:34;;;;;;;11.32;4.25;;;;;;;;;;4991290;28;20578;-81
2022/02/13 05:25:59;;;;;;;8.25;4.80;;;;;;;;;;4987173;28;20542;-84
2022/02/13 05:28:24;;;;;;;9.20;4.90;;;;;;;;;;4986229;28;20018;-83
2022/02/13 05:30:50;;;;;;;7.22;4.03;;;;;;;;;;4993420;28;20474;-84
2022/02/13 05:33:15;;;;;;;8.85;4.55;;;;;;;;;;4994039;28;20462;-85
2022/02/13 05:35:40;;;;;;;9.55;4.97;;;;;;;;;;4989480;28;20517;-82
2022/02/13 05:38:06;;;;;;;7.72;4.20;;;;;;;;;;4991792;28;20113;-84
2022/02/13 05:40:31;;;;;;;8.95;4.80;;;;;;;;;;4991659;28;20033;-86
2022/02/13 05:42:56;;;;;;;7.85;4.20;;;;;;;;;;4981751;28;20643;-85
2022/02/13 05:45:23;;;;;;;9.75;4.68;;;;;;;;;;4992389;28;20030;-85
2022/02/13 05:47:48;;;;;;;6.70;4.30;;;;;;;;;;4988483;28;20379;-84
2022/02/13 05:50:14;;;;;;;8.98;4.95;;;;;;;;;;4990678;28;20030;-85
2022/02/13 05:52:39;;;;;;;9.40;4.95;;;;;;;;;;4996567;28;20037;-85
2022/02/13 05:55:05;;;;;;;8.68;5.15;;;;;;;;;;4984710;28;20101;-85
2022/02/13 05:57:30;;;;;;;9.80;5.15;;;;;;;;;;4984430;28;20125;-86
2022/02/13 05:59:56;;;;;;;8.45;4.28;;;;;;;;;;4987054;28;20129;-85
2022/02/13 06:02:21;;;;;;;9.25;5.05;;;;;;;;;;4983958;28;20485;-84
2022/02/13 06:04:46;;;;;;;9.38;4.72;;;;;;;;;;4990597;28;20030;-85
2022/02/13 06:07:12;;;;;;;9.48;4.70;;;;;;;;;;4984677;28;20109;-84
2022/02/13 06:09:37;;;;;;;8.50;4.05;;;;;;;;;;4991153;28;20411;-84
2022/02/13 06:12:03;;;;;;;8.95;4.53;;;;;;;;;;4990146;28;20034;-85
2022/02/13 06:14:29;;;;;;;8.05;4.47;;;;;;;;;;4985410;28;20026;-85
2022/02/13 06:16:55;;;;;;;7.95;4.20;;;;;;;;;;4992633;28;20030;-85
2022/02/13 06:19:21;;;;;;;8.90;4.97;;;;;;;;;;4992101;28;20457;-86
2022/02/13 06:21:46;;;;;;;8.82;4.65;;;;;;;;;;4984974;28;20030;-81
2022/02/13 06:24:11;;;;;;;8.52;4.70;;;;;;;;;;4998537;28;20400;-81
2022/02/13 06:26:37;;;;;;;8.98;4.50;;;;;;;;;;4990627;28;20155;-84
2022/02/13 06:29:06;;;;;;;8.90;4.65;;;;;;;;;;4986902;28;20183;-87
2022/02/13 06:31:32;;;;;;;9.05;4.40;;;;;;;;;;4992870;28;20033;-84
2022/02/13 06:33:57;;;;;;;8.13;4.45;;;;;;;;;;4987053;28;20023;-84
2022/02/13 06:36:22;;;;;;;8.27;4.50;;;;;;;;;;4989069;28;20152;-86
2022/02/13 06:38:48;;;;;;;9.13;4.78;;;;;;;;;;4998413;28;20411;-85
2022/02/13 06:41:13;;;;;;;7.97;4.57;;;;;;;;;;4991048;28;20045;-81
2022/02/13 06:43:38;;;;;;;10.95;5.13;;;;;;;;;;4987869;28;20034;-82
2022/02/13 06:46:04;;;;;;;7.95;4.80;;;;;;;;;;4991124;28;20164;-81
2022/02/13 06:48:31;;;;;;;10.65;4.95;;;;;;;;;;4991942;28;20026;-86
2022/02/13 06:50:57;;;;;;;8.60;4.90;;;;;;;;;;4991197;28;20395;-85
2022/02/13 06:53:23;;;;;;;11.55;5.75;;;;;;;;;;4993081;28;20084;-84
2022/02/13 06:55:50;;;;;;;10.90;5.85;;;;;;;;;;4989324;28;20109;-86
2022/02/13 06:58:17;;;;;;;9.40;5.32;;;;;;;;;;4988633;28;20034;-84
2022/02/13 07:00:43;;;;;;;10.10;5.22;;;;;;;;;;4998239;28;20041;-82
2022/02/13 07:03:09;;;;;;;8.65;4.85;;;;;;;;;;4986942;28;20411;-86
2022/02/13 07:05:34;;;;;;;8.73;5.03;;;;;;;;;;4983823;28;20029;-84
2022/02/13 07:08:00;;;;;;;13.40;6.05;;;;;;;;;;4988329;28;20475;-85
2022/02/13 07:10:25;;;;;;;10.63;5.20;;;;;;;;;;4988329;28;20018;-85
2022/02/13 07:12:50;;;;;;;8.75;5.15;;;;;;;;;;4996417;28;20498;-84
2022/02/13 07:15:16;;;;;;;11.02;5.25;;;;;;;;;;4988858;28;20034;-86
2022/02/13 07:17:41;;;;;;;9.18;4.95;;;;;;;;;;4986558;28;20030;-83
2022/02/13 07:20:08;;;;;;;9.57;4.95;;;;;;;;;;4985764;28;20030;-86
2022/02/13 07:22:34;;;;;;;9.65;5.10;;;;;;;;;;4985113;28;20069;-80
2022/02/13 07:24:59;;;;;;;9.57;5.50;;;;;;;;;;4984700;28;20069;-84
2022/02/13 07:27:24;;;;;;;10.55;5.38;;;;;;;;;;4983440;28;20042;-85
2022/02/13 07:29:50;;;;;;;10.07;5.32;;;;;;;;;;4985504;28;20495;-85
2022/02/13 07:32:15;;;;;;;11.23;5.43;;;;;;;;;;4984500;28;20033;-80
2022/02/13 07:34:40;;;;;;;10.52;5.45;;;;;;;;;;4983167;28;20046;-85
2022/02/13 07:37:06;;;;;;;9.73;5.40;;;;;;;;;;5000352;28;20110;-85
2022/02/13 07:39:33;;;;;;;10.10;5.35;;;;;;;;;;4985235;28;20062;-84
2022/02/13 07:41:59;;;;;;;11.80;5.57;;;;;;;;;;4990303;28;20023;-85
2022/02/13 07:44:25;;;;;;;12.55;5.50;;;;;;;;;;4986959;28;20038;-85
2022/02/13 07:46:50;;;;;;;7.55;4.85;;;;;;;;;;4997777;28;20417;-80
2022/02/13 07:49:17;;;;;;;8.35;4.85;;;;;;;;;;4988965;28;20109;-84
2022/02/13 07:51:42;;;;;;;8.93;5.15;;;;;;;;;;4988006;28;20030;-82
2022/02/13 07:54:08;;;;;;;9.48;4.93;;;;;;;;;;4991130;28;20550;-87
2022/02/13 07:56:33;;;;;;;8.20;5.00;;;;;;;;;;4992562;28;20029;-82
2022/02/13 07:59:00;;;;;;;7.95;5.03;;;;;;;;;;4990045;28;20031;-84
2022/02/13 08:01:26;;;;;;;8.35;4.68;;;;;;;;;;4980250;28;20045;-86
2022/02/13 08:03:51;;;;;;;9.75;4.88;;;;;;;;;;4984524;28;20038;-84
2022/02/13 08:06:18;;;;;;;9.05;4.97;;;;;;;;;;4988716;28;20398;-84
2022/02/13 08:08:46;;;;;;;8.13;4.80;;;;;;;;;;4986436;28;20510;-84
2022/02/13 08:11:13;;;;;;;8.82;4.93;;;;;;;;;;5000042;28;20085;-86
2022/02/13 08:13:39;;;;;;;10.57;5.57;;;;;;;;;;4986858;28;20026;-84
2022/02/13 08:16:06;;;;;;;10.32;4.90;;;;;;;;;;4989403;28;20022;-85
2022/02/13 08:18:39;;;;;;;8.73;5.32;;;;;;;;;;4989247;28;20038;-83
2022/02/13 08:21:04;;;;;;;9.38;5.25;;;;;;;;;;4983585;28;20042;-84
2022/02/13 08:23:29;;;;;;;8.60;5.38;;;;;;;;;;4988550;28;20133;-85
2022/02/13 08:25:55;;;;;;;9.10;5.47;;;;;;;;;;4977754;28;20052;-85
2022/02/13 08:28:20;;;;;;;9.60;5.55;;;;;;;;;;4994452;28;20125;-85
2022/02/13 08:30:58;;;;;;;11.02;5.25;;;;;;;;;;4992048;28;20037;-87
2022/02/13 08:33:24;;;;;;;10.13;5.05;;;;;;;;;;4981008;28;20054;-85
2022/02/13 08:35:52;;;;;;;8.95;5.03;;;;;;;;;;4989113;28;20073;-84
2022/02/13 08:38:23;;;;;;;8.10;5.15;;;;;;;;;;4988166;28;20030;-81
2022/02/13 08:40:53;;;;;;;9.00;5.70;;;;;;;;;;4993928;28;20054;-84
2022/02/13 08:43:24;;;;;;;10.48;5.28;;;;;;;;;;4977756;28;20034;-86
2022/02/13 08:45:55;;;;;;;8.23;4.97;;;;;;;;;;4987180;28;20439;-80
2022/02/13 08:48:24;;;;;;;8.88;5.10;;;;;;;;;;4989955;28;20034;-80
2022/02/13 08:50:59;;;;;;;9.02;5.00;;;;;;;;;;4999528;28;20487;-80
2022/02/13 08:53:27;;;;;;;11.05;5.20;;;;;;;;;;4981984;28;20467;-86
2022/02/13 08:56:00;;;;;;;8.95;4.80;;;;;;;;;;4985949;28;20088;-79
2022/02/13 08:58:30;;;;;;;8.88;5.45;;;;;;;;;;4988969;28;20026;-85
2022/02/13 09:00:59;;;;;;;9.93;5.57;;;;;;;;;;4988810;28;20394;-86
2022/02/13 09:03:27;;;;;;;7.78;4.82;;;;;;;;;;4989470;28;20042;-80
2022/02/13 09:05:58;;;;;;;10.30;5.00;;;;;;;;;;4981809;28;20088;-86
2022/02/13 09:08:26;;;;;;;7.65;4.78;;;;;;;;;;4986960;28;20038;-84
2022/02/13 09:10:54;;;;;;;9.65;5.18;;;;;;;;;;4987417;28;20117;-83
2022/02/13 09:13:24;;;;;;;10.10;4.95;;;;;;;;;;4987541;28;20022;-85
2022/02/13 09:15:54;;;;;;;7.88;4.78;;;;;;;;;;4983982;28;20114;-85
2022/02/13 09:18:20;;;;;;;7.85;5.20;;;;;;;;;;4989004;28;20060;-86
2022/02/13 09:20:46;;;;;;;10.70;5.43;;;;;;;;;;4985145;28;20137;-81
2022/02/13 09:23:32;;;;;;;8.85;5.05;;;;;;;;;;4984559;28;20042;-83
2022/02/13 09:26:00;;;;;;;8.05;4.65;;;;;;;;;;4982241;28;20050;-83
2022/02/13 09:28:45;;;;;;;8.10;4.57;;;;;;;;;;4988534;28;20038;-85
2022/02/13 09:31:11;;;;;;;10.45;5.10;;;;;;;;;;4987434;28;20045;-86
2022/02/13 09:33:36;;;;;;;7.30;4.50;;;;;;;;;;4986637;28;20495;-83
2022/02/13 09:36:03;;;;;;;10.40;4.80;;;;;;;;;;4992991;28;20018;-86
2022/02/13 09:38:34;;;;;;;9.20;4.85;;;;;;;;;;4986508;28;20033;-85
2022/02/13 09:41:04;;;;;;;8.32;4.65;;;;;;;;;;5008396;28;20018;-86
2022/02/13 09:43:33;;;;;;;8.35;5.10;;;;;;;;;;4985394;28;20499;-85
2022/02/13 09:46:06;;;;;;;8.65;5.10;;;;;;;;;;4989922;28;20022;-85
2022/02/13 09:48:35;;;;;;;9.60;5.30;;;;;;;;;;4989057;28;20121;-86
2022/02/13 09:51:07;;;;;;;8.30;4.97;;;;;;;;;;4986209;28;20109;-85
2022/02/13 09:53:36;;;;;;;9.73;4.88;;;;;;;;;;4981521;28;20022;-86
2022/02/13 09:56:08;;;;;;;9.40;4.82;;;;;;;;;;4986766;28;20069;-79
2022/02/13 09:58:37;;;;;;;9.23;4.82;;;;;;;;;;4998765;28;20554;-84
2022/02/13 10:01:11;;;;;;;8.10;5.10;;;;;;;;;;4989455;28;20062;-87
2022/02/13 10:03:51;;;;;;;8.38;4.80;;;;;;;;;;4988724;28;20521;-85
2022/02/13 10:06:19;;;;;;;8.65;4.38;;;;;;;;;;5002712;28;20102;-86
2022/02/13 10:08:48;;;;;;;9.40;4.55;;;;;;;;;;4989145;28;20118;-83
2022/02/13 10:11:24;;;;;;;8.35;5.07;;;;;;;;;;4984687;28;20038;-85
2022/02/13 10:14:12;;;;;;;8.18;4.65;;;;;;;;;;4990436;28;20022;-85
2022/02/13 10:16:49;;;;;;;10.38;4.60;;;;;;;;;;4990174;28;20053;-83
2022/02/13 10:19:16;;;;;;;10.80;5.50;;;;;;;;;;4988879;28;20049;-87
2022/02/13 10:21:56;;;;;;;7.35;4.60;;;;;;;;;;4985374;28;20145;-85
2022/02/13 10:24:33;;;;;;;8.93;4.88;;;;;;;;;;5002252;28;20387;-83
2022/02/13 10:27:14;;;;;;;8.63;4.50;;;;;;;;;;5004625;28;20050;-83
2022/02/13 10:29:46;;;;;;;7.88;4.68;;;;;;;;;;4989181;28;20027;-86
2022/02/13 10:32:41;;;;;;;7.17;4.50;;;;;;;;;;4984324;28;20037;-84
2022/02/13 10:35:15;;;;;;;7.63;4.55;;;;;;;;;;4981542;28;20042;-81
2022/02/13 10:38:08;;;;;;;8.57;4.82;;;;;;;;;;4989749;28;20470;-79
2022/02/13 10:40:34;;;;;;;8.18;4.80;;;;;;;;;;4981719;28;20031;-84
2022/02/13 10:43:15;;;;;;;7.28;4.30;;;;;;;;;;4987652;28;20038;-85
2022/02/13 10:45:41;;;;;;;7.47;4.65;;;;;;;;;;4986850;28;20034;-80
2022/02/13 10:48:16;;;;;;;8.07;4.70;;;;;;;;;;4985949;28;20034;-83
2022/02/13 10:50:44;;;;;;;12.35;6.38;;;;;;;;;;4983402;28;20036;-82
2022/02/13 10:53:10;;;;;;;9.60;5.50;;;;;;;;;;4980449;28;20388;-80
2022/02/13 10:55:58;;;;;;;8.40;5.15;;;;;;;;;;4993452;28;20028;-85
2022/02/13 10:58:23;;;;;;;9.35;5.28;;;;;;;;;;4992024;28;20445;-77
2022/02/13 11:00:49;;;;;;;8.23;5.10;;;;;;;;;;4992850;28;20038;-83
2022/02/13 11:03:20;;;;;;;9.23;4.45;;;;;;;;;;4985498;28;20033;-83
2022/02/13 11:05:50;;;;;;;8.23;4.47;;;;;;;;;;4987837;28;20034;-82
2022/02/13 11:08:22;;;;;;;9.68;5.80;;;;;;;;;;4983482;28;20357;-82
2022/02/13 11:10:49;;;;;;;10.85;5.78;;;;;;;;;;4986689;28;20030;-85
2022/02/13 11:13:17;;;;;;;10.40;5.95;;;;;;;;;;4985657;28;20037;-78
2022/02/13 11:15:42;;;;;;;10.43;6.22;;;;;;;;;;5008150;28;20147;-81
2022/02/13 11:18:14;;;;;;;7.25;4.63;;;;;;;;;;4991686;28;20117;-82
2022/02/13 11:20:41;;;;;;;8.45;4.97;;;;;;;;;;4991579;28;20100;-78
2022/02/13 11:23:21;;;;;;;7.53;4.95;;;;;;;;;;4986067;28;20042;-79
2022/02/13 11:25:58;;;;;;;7.97;5.30;;;;;;;;;;5000699;28;20069;-82
2022/02/13 11:28:42;;;;;;;8.40;5.15;;;;;;;;;;4985115;28;20049;-80
2022/02/13 11:31:28;;;;;;;9.15;5.03;;;;;;;;;;4989335;28;20026;-78
2022/02/13 11:33:53;;;;;;;8.07;5.13;;;;;;;;;;5004415;28;20050;-83
2022/02/13 11:36:19;;;;;;;9.98;5.95;;;;;;;;;;4986564;28;20037;-78
2022/02/13 11:38:47;;;;;;;9.85;5.70;;;;;;;;;;4983781;28;20034;-85
2022/02/13 11:41:19;;;;;;;6.80;4.75;;;;;;;;;;4985381;28;20041;-82
2022/02/13 11:43:44;;;;;;;9.65;5.07;;;;;;;;;;4999883;28;20033;-80
2022/02/13 11:46:35;;;;;;;8.57;4.97;;;;;;;;;;4992173;28;20030;-82
2022/02/13 11:49:05;;;;;;;10.68;5.63;;;;;;;;;;4969506;28;20038;-85
2022/02/13 11:51:45;;;;;;;9.23;5.15;;;;;;;;;;4986544;28;20509;-85
2022/02/13 11:54:40;;;;;;;8.82;5.40;;;;;;;;;;5000702;28;20030;-81
2022/02/13 11:57:15;;;;;;;7.75;4.80;;;;;;;;;;4986034;28;20423;-79
2022/02/13 12:00:08;;;;;;;7.80;5.30;;;;;;;;;;4989435;28;20044;-79
2022/02/13 12:02:34;;;;;;;;;;;;;;;;;;4985434;28;20432;-82
2022/02/13 12:05:05;;;;;;;10.15;4.65;;;;;;;;;;5003138;28;19925;-78
2022/02/13 12:07:43;;;;;;;7.35;4.55;;;;;;;;;;4987525;28;20030;-83
2022/02/13 12:10:12;;;;;;;8.00;5.00;;;;;;;;;;4997568;28;20497;-81
2022/02/13 12:12:40;;;;;;;8.60;5.10;;;;;;;;;;4995151;28;20037;-83
2022/02/13 12:15:06;;;;;;;7.50;4.80;;;;;;;;;;4991407;28;20037;-78
2022/02/13 12:17:31;;;;;;;10.75;5.35;;;;;;;;;;4989286;28;20030;-86
2022/02/13 12:20:05;;;;;;;9.70;4.85;;;;;;;;;;4986943;28;20694;-82
2022/02/13 12:22:31;;;;;;;7.60;4.78;;;;;;;;;;4995928;28;20104;-85
2022/02/13 12:25:02;;;;;;;8.05;4.63;;;;;;;;;;4978648;28;20119;-78
2022/02/13 12:27:28;;;;;;;7.85;4.70;;;;;;;;;;4988750;28;20073;-78
2022/02/13 12:30:03;;;;;;;7.57;4.50;;;;;;;;;;4983162;28;20513;-86
2022/02/13 12:32:33;;;;;;;8.05;4.85;;;;;;;;;;4982609;28;20039;-87
2022/02/13 12:35:05;;;;;;;7.25;4.32;;;;;;;;;;4981370;28;20866;-79
2022/02/13 12:37:40;;;;;;;6.82;4.63;;;;;;;;;;4999896;28;20559;-80
2022/02/13 12:40:15;;;;;;;7.47;4.72;;;;;;;;;;5003891;28;20034;-83
2022/02/13 12:42:43;;;;;;;6.47;4.35;;;;;;;;;;4982662;28;20613;-79
2022/02/13 12:45:14;;;;;;;8.50;4.10;;;;;;;;;;4984090;28;20022;-78
2022/02/13 12:47:45;;;;;;;7.03;4.35;;;;;;;;;;4982214;28;20033;-79
2022/02/13 12:50:16;;;;;;;10.75;4.63;;;;;;;;;;4973808;28;20379;-82
2022/02/13 12:52:42;;;;;;;6.95;4.10;;;;;;;;;;4980667;28;20086;-79
2022/02/13 12:55:11;;;;;;;8.00;3.88;;;;;;;;;;4982053;28;20030;-82
2022/02/13 12:57:41;;;;;;;6.78;3.72;;;;;;;;;;4981949;28;20080;-82
2022/02/13 13:00:14;;;;;;;7.70;4.30;;;;;;;;;;4997052;28;20049;-78
2022/02/13 13:02:39;;;;;;;8.13;4.00;;;;;;;;;;4972240;28;20649;-82
2022/02/13 13:05:18;;;;;;;7.50;4.43;;;;;;;;;;4972401;28;20031;-81
2022/02/13 13:07:45;;;;;;;6.70;3.85;;;;;;;;;;4989192;28;20033;-85
2022/02/13 13:10:27;;;;;;;6.68;3.90;;;;;;;;;;4981803;28;20031;-82
2022/02/13 13:13:08;;;;;;;7.85;4.40;;;;;;;;;;4984318;28;20058;-82
2022/02/13 13:15:36;;;;;;;7.13;3.60;;;;;;;;;;5001165;28;20380;-79
2022/02/13 13:18:04;;;;;;;6.63;4.43;;;;;;;;;;4990197;28;20083;-79
2022/02/13 13:20:37;;;;;;;6.85;4.15;;;;;;;;;;4983785;28;20022;-83
2022/02/13 13:23:09;;;;;;;7.05;4.10;;;;;;;;;;4984389;28;20165;-82
2022/02/13 13:25:35;;;;;;;8.82;4.18;;;;;;;;;;4978678;28;20657;-82
2022/02/13 13:28:08;;;;;;;7.38;4.10;;;;;;;;;;4985213;28;20121;-82
2022/02/13 13:30:34;;;;;;;8.85;4.15;;;;;;;;;;5001467;28;20045;-85
2022/02/13 13:33:04;;;;;;;6.70;3.83;;;;;;;;;;4986040;28;20034;-83
2022/02/13 13:35:30;;;;;;;6.07;3.97;;;;;;;;;;4984357;28;20031;-82
2022/02/13 13:37:56;;;;;;;6.93;4.35;;;;;;;;;;5001549;28;20022;-82
2022/02/13 13:40:23;;;;;;;8.95;4.15;;;;;;;;;;4984193;28;20034;-83
2022/02/13 13:42:57;;;;;;;8.57;4.25;;;;;;;;;;4984267;28;20125;-82
2022/02/13 13:45:28;;;;;;;9.48;4.47;;;;;;;;;;5003470;28;20068;-85
2022/02/13 13:47:55;;;;;;;9.00;4.60;;;;;;;;;;4986213;28;20037;-85
2022/02/13 13:50:26;;;;;;;7.05;4.18;;;;;;;;;;4986192;28;20041;-80
2022/02/13 13:52:52;;;;;;;6.53;3.92;;;;;;;;;;4984679;28;20034;-78
2022/02/13 13:55:18;;;;;;;7.63;4.45;;;;;;;;;;4983987;28;20041;-83
2022/02/13 13:57:45;;;;;;;8.00;4.13;;;;;;;;;;4990140;28;20097;-82
2022/02/13 14:00:12;;;;;;;7.55;4.20;;;;;;;;;;4982926;28;20669;-85
2022/02/13 14:02:58;;;;;;;6.10;4.10;;;;;;;;;;4988453;28;20034;-82
2022/02/13 14:05:43;;;;;;;10.52;4.38;;;;;;;;;;4988788;28;20022;-79
2022/02/13 14:08:09;;;;;;;8.20;4.40;;;;;;;;;;4987052;28;20081;-82
2022/02/13 14:10:36;;;;;;;8.55;4.28;;;;;;;;;;4983851;28;20034;-79
2022/02/13 14:13:03;;;;;;;10.20;4.50;;;;;;;;;;4984793;28;20027;-83
2022/02/13 14:15:28;;;;;;;7.15;4.20;;;;;;;;;;5002103;28;20125;-83
2022/02/13 14:17:55;;;;;;;7.47;4.22;;;;;;;;;;4982401;28;20117;-82
2022/02/13 14:20:21;;;;;;;7.97;3.65;;;;;;;;;;4982994;28;20038;-79
2022/02/13 14:22:46;;;;;;;9.13;4.40;;;;;;;;;;4983000;28;20092;-82
2022/02/13 14:25:12;;;;;;;6.57;3.92;;;;;;;;;;4983014;28;20034;-82
2022/02/13 14:27:38;;;;;;;10.80;4.57;;;;;;;;;;4985316;28;20495;-83
2022/02/13 14:30:05;;;;;;;11.77;4.72;;;;;;;;;;4978332;28;20067;-83
2022/02/13 14:32:31;;;;;;;8.45;4.18;;;;;;;;;;4992122;28;20062;-83
2022/02/13 14:34:57;;;;;;;8.55;4.65;;;;;;;;;;4983144;28;20117;-83
2022/02/13 14:37:25;;;;;;;7.20;4.53;;;;;;;;;;4997556;28;20034;-82
2022/02/13 14:39:54;;;;;;;9.73;4.93;;;;;;;;;;4983844;28;20023;-84
2022/02/13 14:42:19;;;;;;;8.10;4.53;;;;;;;;;;4978136;28;20034;-85
2022/02/13 14:44:46;;;;;;;9.35;4.38;;;;;;;;;;4982228;28;20037;-82